sensor_id;sensor_type;location;lat;lon;timestamp;P1;durP1;ratioP1;P2;durP2;ratioP2
65667;SDS011;52369;52.542;13.232;2024-02-04T00:00:34;7.85;;;1.90;;
65667;SDS011;52369;52.542;13.232;2024-02-04T00:03:02;10.32;;;2.25;;
65667;SDS011;52369;52.542;13.232;2024-02-04T00:05:28;6.78;;;1.88;;
65667;SDS011;52369;52.542;13.232;2024-02-04T00:07:54;6.90;;;1.88;;
65667;SDS011;52369;52.542;13.232;2024-02-04T00:10:20;9.45;;;1.67;;
65667;SDS011;52369;52.542;13.232;2024-02-04T00:12:46;9.93;;;2.60;;
65667;SDS011;52369;52.542;13.232;2024-02-04T00:15:12;7.75;;;2.00;;
65667;SDS011;52369;52.542;13.232;2024-02-04T00:17:38;9.43;;;2.42;;
65667;SDS011;52369;52.542;13.232;2024-02-04T00:20:05;6.18;;;1.80;;
65667;SDS011;52369;52.542;13.232;2024-02-04T00:22:34;7.70;;;2.30;;
65667;SDS011;52369;52.542;13.232;2024-02-04T00:25:01;12.02;;;2.35;;
65667;SDS011;52369;52.542;13.232;2024-02-04T00:27:33;6.03;;;2.08;;
65667;SDS011;52369;52.542;13.232;2024-02-04T00:29:59;7.38;;;1.67;;
65667;SDS011;52369;52.542;13.232;2024-02-04T00:32:25;7.18;;;2.03;;
65667;SDS011;52369;52.542;13.232;2024-02-04T00:34:52;9.27;;;2.00;;
65667;SDS011;52369;52.542;13.232;2024-02-04T00:37:18;9.77;;;1.92;;
65667;SDS011;52369;52.542;13.232;2024-02-04T00:39:44;8.90;;;2.03;;
65667;SDS011;52369;52.542;13.232;2024-02-04T00:42:10;9.48;;;2.10;;
65667;SDS011;52369;52.542;13.232;2024-02-04T00:44:36;11.23;;;2.25;;
65667;SDS011;52369;52.542;13.232;2024-02-04T00:47:02;6.95;;;1.77;;
65667;SDS011;52369;52.542;13.232;2024-02-04T00:49:28;10.95;;;2.08;;
65667;SDS011;52369;52.542;13.232;2024-02-04T00:51:54;10.15;;;1.80;;
65667;SDS011;52369;52.542;13.232;2024-02-04T00:54:20;6.28;;;1.77;;
65667;SDS011;52369;52.542;13.232;2024-02-04T00:56:46;9.57;;;1.98;;
65667;SDS011;52369;52.542;13.232;2024-02-04T00:59:12;8.40;;;2.58;;
65667;SDS011;52369;52.542;13.232;2024-02-04T01:01:39;10.05;;;2.53;;
65667;SDS011;52369;52.542;13.232;2024-02-04T01:04:05;13.40;;;1.83;;
65667;SDS011;52369;52.542;13.232;2024-02-04T01:06:31;11.68;;;2.55;;
65667;SDS011;52369;52.542;13.232;2024-02-04T01:08:57;12.38;;;2.58;;
65667;SDS011;52369;52.542;13.232;2024-02-04T01:11:23;11.40;;;2.03;;
65667;SDS011;52369;52.542;13.232;2024-02-04T01:13:49;8.90;;;1.75;;
65667;SDS011;52369;52.542;13.232;2024-02-04T01:16:15;6.05;;;1.60;;
65667;SDS011;52369;52.542;13.232;2024-02-04T01:18:41;8.43;;;1.98;;
65667;SDS011;52369;52.542;13.232;2024-02-04T01:21:07;10.00;;;2.63;;
65667;SDS011;52369;52.542;13.232;2024-02-04T01:23:36;12.75;;;2.03;;
65667;SDS011;52369;52.542;13.232;2024-02-04T01:26:02;6.78;;;1.70;;
65667;SDS011;52369;52.542;13.232;2024-02-04T01:28:28;10.90;;;2.20;;
65667;SDS011;52369;52.542;13.232;2024-02-04T01:30:54;9.68;;;1.73;;
65667;SDS011;52369;52.542;13.232;2024-02-04T01:33:20;10.18;;;2.15;;
65667;SDS011;52369;52.542;13.232;2024-02-04T01:35:46;10.35;;;2.90;;
65667;SDS011;52369;52.542;13.232;2024-02-04T01:38:12;6.82;;;1.90;;
65667;SDS011;52369;52.542;13.232;2024-02-04T01:40:38;9.63;;;2.30;;
65667;SDS011;52369;52.542;13.232;2024-02-04T01:43:04;7.88;;;1.60;;
65667;SDS011;52369;52.542;13.232;2024-02-04T01:45:30;10.50;;;1.95;;
65667;SDS011;52369;52.542;13.232;2024-02-04T01:47:56;8.25;;;1.88;;
65667;SDS011;52369;52.542;13.232;2024-02-04T01:50:23;7.32;;;1.80;;
65667;SDS011;52369;52.542;13.232;2024-02-04T01:52:49;8.20;;;2.40;;
65667;SDS011;52369;52.542;13.232;2024-02-04T01:55:16;9.98;;;1.70;;
65667;SDS011;52369;52.542;13.232;2024-02-04T01:57:43;10.50;;;2.03;;
65667;SDS011;52369;52.542;13.232;2024-02-04T02:00:10;9.35;;;2.25;;
65667;SDS011;52369;52.542;13.232;2024-02-04T02:02:39;9.48;;;2.08;;
65667;SDS011;52369;52.542;13.232;2024-02-04T02:05:06;7.63;;;1.95;;
65667;SDS011;52369;52.542;13.232;2024-02-04T02:07:33;9.27;;;2.33;;
65667;SDS011;52369;52.542;13.232;2024-02-04T02:09:59;12.45;;;2.35;;
65667;SDS011;52369;52.542;13.232;2024-02-04T02:12:30;6.90;;;2.20;;
65667;SDS011;52369;52.542;13.232;2024-02-04T02:15:00;7.07;;;1.88;;
65667;SDS011;52369;52.542;13.232;2024-02-04T02:17:31;8.35;;;1.77;;
65667;SDS011;52369;52.542;13.232;2024-02-04T02:20:02;9.57;;;2.35;;
65667;SDS011;52369;52.542;13.232;2024-02-04T02:25:05;10.25;;;2.88;;
65667;SDS011;52369;52.542;13.232;2024-02-04T02:27:33;9.57;;;2.15;;
65667;SDS011;52369;52.542;13.232;2024-02-04T02:29:59;9.65;;;1.95;;
65667;SDS011;52369;52.542;13.232;2024-02-04T02:32:25;9.57;;;1.58;;
65667;SDS011;52369;52.542;13.232;2024-02-04T02:34:51;6.25;;;1.67;;
65667;SDS011;52369;52.542;13.232;2024-02-04T02:37:26;11.90;;;1.63;;
65667;SDS011;52369;52.542;13.232;2024-02-04T02:40:01;6.63;;;1.90;;
65667;SDS011;52369;52.542;13.232;2024-02-04T02:42:30;7.72;;;1.77;;
65667;SDS011;52369;52.542;13.232;2024-02-04T02:44:56;9.95;;;2.03;;
65667;SDS011;52369;52.542;13.232;2024-02-04T02:47:23;7.22;;;1.52;;
65667;SDS011;52369;52.542;13.232;2024-02-04T02:49:52;10.82;;;1.85;;
65667;SDS011;52369;52.542;13.232;2024-02-04T02:52:19;10.02;;;1.85;;
65667;SDS011;52369;52.542;13.232;2024-02-04T02:54:45;10.75;;;2.50;;
65667;SDS011;52369;52.542;13.232;2024-02-04T02:57:11;8.20;;;2.40;;
65667;SDS011;52369;52.542;13.232;2024-02-04T02:59:37;11.23;;;2.20;;
65667;SDS011;52369;52.542;13.232;2024-02-04T03:02:04;12.27;;;2.20;;
65667;SDS011;52369;52.542;13.232;2024-02-04T03:04:30;7.13;;;2.17;;
65667;SDS011;52369;52.542;13.232;2024-02-04T03:06:56;10.77;;;2.55;;
65667;SDS011;52369;52.542;13.232;2024-02-04T03:09:22;7.70;;;2.00;;
65667;SDS011;52369;52.542;13.232;2024-02-04T03:11:48;7.68;;;2.13;;
65667;SDS011;52369;52.542;13.232;2024-02-04T03:14:15;10.77;;;2.30;;
65667;SDS011;52369;52.542;13.232;2024-02-04T03:16:43;8.75;;;2.25;;
65667;SDS011;52369;52.542;13.232;2024-02-04T03:19:10;9.65;;;2.60;;
65667;SDS011;52369;52.542;13.232;2024-02-04T03:21:36;8.68;;;2.45;;
65667;SDS011;52369;52.542;13.232;2024-02-04T03:24:02;12.18;;;3.10;;
65667;SDS011;52369;52.542;13.232;2024-02-04T03:26:28;10.40;;;3.10;;
65667;SDS011;52369;52.542;13.232;2024-02-04T03:28:54;10.23;;;2.70;;
65667;SDS011;52369;52.542;13.232;2024-02-04T03:31:20;11.88;;;2.70;;
65667;SDS011;52369;52.542;13.232;2024-02-04T03:33:46;10.63;;;2.53;;
65667;SDS011;52369;52.542;13.232;2024-02-04T03:36:12;7.47;;;2.65;;
65667;SDS011;52369;52.542;13.232;2024-02-04T03:38:39;8.52;;;2.47;;
65667;SDS011;52369;52.542;13.232;2024-02-04T03:41:05;9.35;;;2.63;;
65667;SDS011;52369;52.542;13.232;2024-02-04T03:43:31;7.35;;;2.35;;
65667;SDS011;52369;52.542;13.232;2024-02-04T03:45:57;8.80;;;2.45;;
65667;SDS011;52369;52.542;13.232;2024-02-04T03:48:23;6.50;;;2.50;;
65667;SDS011;52369;52.542;13.232;2024-02-04T03:50:49;9.38;;;2.58;;
65667;SDS011;52369;52.542;13.232;2024-02-04T03:53:15;10.07;;;2.70;;
65667;SDS011;52369;52.542;13.232;2024-02-04T03:55:41;7.53;;;2.03;;
65667;SDS011;52369;52.542;13.232;2024-02-04T03:58:07;4.22;;;2.15;;
65667;SDS011;52369;52.542;13.232;2024-02-04T04:00:33;8.20;;;2.60;;
65667;SDS011;52369;52.542;13.232;2024-02-04T04:02:59;6.75;;;2.40;;
65667;SDS011;52369;52.542;13.232;2024-02-04T04:05:25;9.60;;;2.53;;
65667;SDS011;52369;52.542;13.232;2024-02-04T04:07:51;8.25;;;2.83;;
65667;SDS011;52369;52.542;13.232;2024-02-04T04:10:17;7.35;;;2.67;;
65667;SDS011;52369;52.542;13.232;2024-02-04T04:12:43;5.97;;;2.20;;
65667;SDS011;52369;52.542;13.232;2024-02-04T04:15:09;7.68;;;2.72;;
65667;SDS011;52369;52.542;13.232;2024-02-04T04:17:35;7.00;;;2.90;;
65667;SDS011;52369;52.542;13.232;2024-02-04T04:20:03;6.05;;;1.90;;
65667;SDS011;52369;52.542;13.232;2024-02-04T04:22:29;9.40;;;2.05;;
65667;SDS011;52369;52.542;13.232;2024-02-04T04:24:55;5.28;;;2.42;;
65667;SDS011;52369;52.542;13.232;2024-02-04T04:27:21;7.03;;;3.58;;
65667;SDS011;52369;52.542;13.232;2024-02-04T04:29:47;10.45;;;2.42;;
65667;SDS011;52369;52.542;13.232;2024-02-04T04:32:13;7.28;;;2.30;;
65667;SDS011;52369;52.542;13.232;2024-02-04T04:34:39;8.82;;;2.30;;
65667;SDS011;52369;52.542;13.232;2024-02-04T04:37:05;5.55;;;2.67;;
65667;SDS011;52369;52.542;13.232;2024-02-04T04:39:31;8.10;;;2.25;;
65667;SDS011;52369;52.542;13.232;2024-02-04T04:41:57;5.45;;;1.73;;
65667;SDS011;52369;52.542;13.232;2024-02-04T04:44:23;5.93;;;2.35;;
65667;SDS011;52369;52.542;13.232;2024-02-04T04:46:49;7.90;;;2.08;;
65667;SDS011;52369;52.542;13.232;2024-02-04T04:49:15;6.55;;;1.85;;
65667;SDS011;52369;52.542;13.232;2024-02-04T04:51:45;6.57;;;1.88;;
65667;SDS011;52369;52.542;13.232;2024-02-04T04:54:14;6.80;;;1.93;;
65667;SDS011;52369;52.542;13.232;2024-02-04T04:56:40;9.13;;;1.75;;
65667;SDS011;52369;52.542;13.232;2024-02-04T04:59:06;9.93;;;2.15;;
65667;SDS011;52369;52.542;13.232;2024-02-04T05:01:33;8.52;;;1.90;;
65667;SDS011;52369;52.542;13.232;2024-02-04T05:03:59;7.82;;;1.73;;
65667;SDS011;52369;52.542;13.232;2024-02-04T05:06:25;4.95;;;2.40;;
65667;SDS011;52369;52.542;13.232;2024-02-04T05:08:51;6.10;;;2.33;;
65667;SDS011;52369;52.542;13.232;2024-02-04T05:11:17;7.60;;;1.90;;
65667;SDS011;52369;52.542;13.232;2024-02-04T05:13:43;6.18;;;2.10;;
65667;SDS011;52369;52.542;13.232;2024-02-04T05:16:10;10.10;;;1.92;;
65667;SDS011;52369;52.542;13.232;2024-02-04T05:18:37;4.35;;;1.35;;
65667;SDS011;52369;52.542;13.232;2024-02-04T05:21:03;3.90;;;1.70;;
65667;SDS011;52369;52.542;13.232;2024-02-04T05:23:30;9.40;;;2.10;;
65667;SDS011;52369;52.542;13.232;2024-02-04T05:25:56;6.07;;;1.92;;
65667;SDS011;52369;52.542;13.232;2024-02-04T05:28:22;5.72;;;1.67;;
65667;SDS011;52369;52.542;13.232;2024-02-04T05:30:48;4.80;;;1.80;;
65667;SDS011;52369;52.542;13.232;2024-02-04T05:33:14;3.88;;;1.80;;
65667;SDS011;52369;52.542;13.232;2024-02-04T05:35:41;7.30;;;2.03;;
65667;SDS011;52369;52.542;13.232;2024-02-04T05:38:08;6.43;;;2.10;;
65667;SDS011;52369;52.542;13.232;2024-02-04T05:40:34;5.22;;;1.95;;
65667;SDS011;52369;52.542;13.232;2024-02-04T05:43:00;6.68;;;1.67;;
65667;SDS011;52369;52.542;13.232;2024-02-04T05:45:31;6.47;;;1.83;;
65667;SDS011;52369;52.542;13.232;2024-02-04T05:47:57;5.97;;;2.17;;
65667;SDS011;52369;52.542;13.232;2024-02-04T05:50:23;6.07;;;2.22;;
65667;SDS011;52369;52.542;13.232;2024-02-04T05:52:49;6.32;;;1.98;;
65667;SDS011;52369;52.542;13.232;2024-02-04T05:55:15;7.32;;;2.03;;
65667;SDS011;52369;52.542;13.232;2024-02-04T05:57:41;6.50;;;1.80;;
65667;SDS011;52369;52.542;13.232;2024-02-04T06:00:08;6.32;;;1.80;;
65667;SDS011;52369;52.542;13.232;2024-02-04T06:02:37;8.30;;;2.85;;
65667;SDS011;52369;52.542;13.232;2024-02-04T06:05:03;5.53;;;2.65;;
65667;SDS011;52369;52.542;13.232;2024-02-04T06:07:29;8.73;;;2.13;;
65667;SDS011;52369;52.542;13.232;2024-02-04T06:09:55;5.18;;;2.20;;
65667;SDS011;52369;52.542;13.232;2024-02-04T06:12:22;5.70;;;2.33;;
65667;SDS011;52369;52.542;13.232;2024-02-04T06:14:48;6.55;;;2.05;;
65667;SDS011;52369;52.542;13.232;2024-02-04T06:17:14;9.25;;;3.15;;
65667;SDS011;52369;52.542;13.232;2024-02-04T06:19:40;4.78;;;2.38;;
65667;SDS011;52369;52.542;13.232;2024-02-04T06:22:06;8.32;;;3.22;;
65667;SDS011;52369;52.542;13.232;2024-02-04T06:24:32;4.88;;;2.17;;
65667;SDS011;52369;52.542;13.232;2024-02-04T06:26:58;8.93;;;2.30;;
65667;SDS011;52369;52.542;13.232;2024-02-04T06:29:24;7.45;;;2.60;;
65667;SDS011;52369;52.542;13.232;2024-02-04T06:31:50;7.85;;;2.92;;
65667;SDS011;52369;52.542;13.232;2024-02-04T06:34:16;8.65;;;3.17;;
65667;SDS011;52369;52.542;13.232;2024-02-04T06:36:43;6.90;;;2.70;;
65667;SDS011;52369;52.542;13.232;2024-02-04T06:39:10;7.50;;;2.58;;
65667;SDS011;52369;52.542;13.232;2024-02-04T06:41:36;6.13;;;3.40;;
65667;SDS011;52369;52.542;13.232;2024-02-04T06:44:05;10.57;;;3.70;;
65667;SDS011;52369;52.542;13.232;2024-02-04T06:46:31;8.98;;;3.47;;
65667;SDS011;52369;52.542;13.232;2024-02-04T06:48:57;7.25;;;3.30;;
65667;SDS011;52369;52.542;13.232;2024-02-04T06:51:23;8.50;;;2.95;;
65667;SDS011;52369;52.542;13.232;2024-02-04T06:53:49;7.95;;;3.30;;
65667;SDS011;52369;52.542;13.232;2024-02-04T06:56:15;9.52;;;3.70;;
65667;SDS011;52369;52.542;13.232;2024-02-04T06:58:42;9.93;;;3.70;;
65667;SDS011;52369;52.542;13.232;2024-02-04T07:01:08;9.20;;;3.60;;
65667;SDS011;52369;52.542;13.232;2024-02-04T07:03:34;9.10;;;3.80;;
65667;SDS011;52369;52.542;13.232;2024-02-04T07:06:00;9.82;;;3.78;;
65667;SDS011;52369;52.542;13.232;2024-02-04T07:08:26;8.20;;;4.20;;
65667;SDS011;52369;52.542;13.232;2024-02-04T07:10:52;12.02;;;3.97;;
65667;SDS011;52369;52.542;13.232;2024-02-04T07:13:19;9.63;;;3.20;;
65667;SDS011;52369;52.542;13.232;2024-02-04T07:15:45;11.38;;;3.67;;
65667;SDS011;52369;52.542;13.232;2024-02-04T07:18:11;11.57;;;4.15;;
65667;SDS011;52369;52.542;13.232;2024-02-04T07:20:37;10.35;;;4.82;;
65667;SDS011;52369;52.542;13.232;2024-02-04T07:23:03;8.30;;;3.50;;
65667;SDS011;52369;52.542;13.232;2024-02-04T07:25:30;8.15;;;3.85;;
65667;SDS011;52369;52.542;13.232;2024-02-04T07:27:56;10.25;;;3.78;;
65667;SDS011;52369;52.542;13.232;2024-02-04T07:30:23;10.25;;;4.75;;
65667;SDS011;52369;52.542;13.232;2024-02-04T07:32:49;10.18;;;4.10;;
65667;SDS011;52369;52.542;13.232;2024-02-04T07:35:16;8.35;;;3.67;;
65667;SDS011;52369;52.542;13.232;2024-02-04T07:37:42;7.05;;;3.70;;
65667;SDS011;52369;52.542;13.232;2024-02-04T07:40:09;8.90;;;3.75;;
65667;SDS011;52369;52.542;13.232;2024-02-04T07:42:35;11.85;;;4.53;;
65667;SDS011;52369;52.542;13.232;2024-02-04T07:45:01;10.32;;;3.60;;
65667;SDS011;52369;52.542;13.232;2024-02-04T07:47:33;10.10;;;3.87;;
65667;SDS011;52369;52.542;13.232;2024-02-04T07:49:59;9.07;;;3.30;;
65667;SDS011;52369;52.542;13.232;2024-02-04T07:52:25;7.95;;;4.05;;
65667;SDS011;52369;52.542;13.232;2024-02-04T07:54:51;9.35;;;3.90;;
65667;SDS011;52369;52.542;13.232;2024-02-04T07:57:17;11.23;;;4.03;;
65667;SDS011;52369;52.542;13.232;2024-02-04T07:59:43;6.93;;;3.78;;
65667;SDS011;52369;52.542;13.232;2024-02-04T08:02:09;12.40;;;4.20;;
65667;SDS011;52369;52.542;13.232;2024-02-04T08:04:35;8.85;;;3.80;;
65667;SDS011;52369;52.542;13.232;2024-02-04T08:07:02;10.35;;;3.35;;
65667;SDS011;52369;52.542;13.232;2024-02-04T08:09:28;9.40;;;3.90;;
65667;SDS011;52369;52.542;13.232;2024-02-04T08:11:54;12.00;;;3.83;;
65667;SDS011;52369;52.542;13.232;2024-02-04T08:14:20;11.35;;;3.90;;
65667;SDS011;52369;52.542;13.232;2024-02-04T08:16:46;7.80;;;3.30;;
65667;SDS011;52369;52.542;13.232;2024-02-04T08:19:13;8.95;;;3.10;;
65667;SDS011;52369;52.542;13.232;2024-02-04T08:21:39;10.75;;;3.67;;
65667;SDS011;52369;52.542;13.232;2024-02-04T08:24:05;12.02;;;3.45;;
65667;SDS011;52369;52.542;13.232;2024-02-04T08:26:31;8.68;;;3.13;;
65667;SDS011;52369;52.542;13.232;2024-02-04T08:28:58;8.77;;;3.83;;
65667;SDS011;52369;52.542;13.232;2024-02-04T08:31:24;10.27;;;2.92;;
65667;SDS011;52369;52.542;13.232;2024-02-04T08:33:50;7.55;;;2.97;;
65667;SDS011;52369;52.542;13.232;2024-02-04T08:36:17;7.72;;;2.80;;
65667;SDS011;52369;52.542;13.232;2024-02-04T08:38:43;8.73;;;3.08;;
65667;SDS011;52369;52.542;13.232;2024-02-04T08:41:09;10.30;;;2.72;;
65667;SDS011;52369;52.542;13.232;2024-02-04T08:43:35;8.20;;;3.10;;
65667;SDS011;52369;52.542;13.232;2024-02-04T08:46:01;5.78;;;2.47;;
65667;SDS011;52369;52.542;13.232;2024-02-04T08:48:28;5.38;;;2.42;;
65667;SDS011;52369;52.542;13.232;2024-02-04T08:50:54;7.03;;;2.75;;
65667;SDS011;52369;52.542;13.232;2024-02-04T08:53:20;6.70;;;2.22;;
65667;SDS011;52369;52.542;13.232;2024-02-04T08:55:48;9.10;;;2.60;;
65667;SDS011;52369;52.542;13.232;2024-02-04T08:58:14;9.85;;;2.70;;
65667;SDS011;52369;52.542;13.232;2024-02-04T09:00:41;7.38;;;2.40;;
65667;SDS011;52369;52.542;13.232;2024-02-04T09:03:07;5.15;;;1.80;;
65667;SDS011;52369;52.542;13.232;2024-02-04T09:05:33;7.03;;;2.50;;
65667;SDS011;52369;52.542;13.232;2024-02-04T09:07:59;9.07;;;2.30;;
65667;SDS011;52369;52.542;13.232;2024-02-04T09:10:26;9.90;;;2.40;;
65667;SDS011;52369;52.542;13.232;2024-02-04T09:12:52;10.07;;;3.05;;
65667;SDS011;52369;52.542;13.232;2024-02-04T09:15:18;6.63;;;2.28;;
65667;SDS011;52369;52.542;13.232;2024-02-04T09:17:44;7.30;;;2.55;;
65667;SDS011;52369;52.542;13.232;2024-02-04T09:20:10;6.22;;;2.38;;
65667;SDS011;52369;52.542;13.232;2024-02-04T09:22:36;9.07;;;2.38;;
65667;SDS011;52369;52.542;13.232;2024-02-04T09:25:04;6.20;;;1.85;;
65667;SDS011;52369;52.542;13.232;2024-02-04T09:27:30;5.80;;;1.77;;
65667;SDS011;52369;52.542;13.232;2024-02-04T09:29:56;6.65;;;2.28;;
65667;SDS011;52369;52.542;13.232;2024-02-04T09:32:23;5.95;;;1.70;;
65667;SDS011;52369;52.542;13.232;2024-02-04T09:34:49;5.35;;;1.70;;
65667;SDS011;52369;52.542;13.232;2024-02-04T09:37:15;7.38;;;1.92;;
65667;SDS011;52369;52.542;13.232;2024-02-04T09:39:41;8.63;;;1.63;;
65667;SDS011;52369;52.542;13.232;2024-02-04T09:42:07;6.35;;;1.50;;
65667;SDS011;52369;52.542;13.232;2024-02-04T09:44:34;8.50;;;1.92;;
65667;SDS011;52369;52.542;13.232;2024-02-04T09:47:01;7.88;;;2.08;;
65667;SDS011;52369;52.542;13.232;2024-02-04T09:49:27;8.32;;;1.88;;
65667;SDS011;52369;52.542;13.232;2024-02-04T09:51:54;6.95;;;1.27;;
65667;SDS011;52369;52.542;13.232;2024-02-04T09:54:21;2.58;;;1.40;;
65667;SDS011;52369;52.542;13.232;2024-02-04T09:56:48;4.60;;;1.33;;
65667;SDS011;52369;52.542;13.232;2024-02-04T09:59:16;5.57;;;1.35;;
65667;SDS011;52369;52.542;13.232;2024-02-04T10:01:42;8.77;;;1.33;;
65667;SDS011;52369;52.542;13.232;2024-02-04T10:04:09;4.32;;;1.67;;
65667;SDS011;52369;52.542;13.232;2024-02-04T10:06:35;9.40;;;1.38;;
65667;SDS011;52369;52.542;13.232;2024-02-04T10:09:01;6.97;;;1.52;;
65667;SDS011;52369;52.542;13.232;2024-02-04T10:11:27;4.45;;;1.38;;
65667;SDS011;52369;52.542;13.232;2024-02-04T10:13:53;2.75;;;0.90;;
65667;SDS011;52369;52.542;13.232;2024-02-04T10:16:19;6.45;;;1.50;;
65667;SDS011;52369;52.542;13.232;2024-02-04T10:18:46;5.57;;;1.30;;
65667;SDS011;52369;52.542;13.232;2024-02-04T10:21:16;5.75;;;1.25;;
65667;SDS011;52369;52.542;13.232;2024-02-04T10:23:43;3.50;;;1.20;;
65667;SDS011;52369;52.542;13.232;2024-02-04T10:26:09;5.40;;;1.08;;
65667;SDS011;52369;52.542;13.232;2024-02-04T10:28:36;2.40;;;0.93;;
65667;SDS011;52369;52.542;13.232;2024-02-04T10:31:02;7.03;;;1.70;;
65667;SDS011;52369;52.542;13.232;2024-02-04T10:33:31;3.58;;;1.13;;
65667;SDS011;52369;52.542;13.232;2024-02-04T10:35:57;6.72;;;1.65;;
65667;SDS011;52369;52.542;13.232;2024-02-04T10:38:23;5.43;;;1.48;;
65667;SDS011;52369;52.542;13.232;2024-02-04T10:40:50;5.13;;;1.70;;
65667;SDS011;52369;52.542;13.232;2024-02-04T10:43:18;6.85;;;1.88;;
65667;SDS011;52369;52.542;13.232;2024-02-04T10:45:44;5.32;;;1.30;;
65667;SDS011;52369;52.542;13.232;2024-02-04T10:48:18;5.30;;;1.58;;
65667;SDS011;52369;52.542;13.232;2024-02-04T10:50:46;2.22;;;0.80;;
65667;SDS011;52369;52.542;13.232;2024-02-04T10:53:15;6.75;;;1.55;;
65667;SDS011;52369;52.542;13.232;2024-02-04T10:55:43;4.70;;;1.20;;
65667;SDS011;52369;52.542;13.232;2024-02-04T10:58:12;3.13;;;0.95;;
65667;SDS011;52369;52.542;13.232;2024-02-04T11:00:43;6.68;;;1.42;;
65667;SDS011;52369;52.542;13.232;2024-02-04T11:03:09;5.10;;;2.05;;
65667;SDS011;52369;52.542;13.232;2024-02-04T11:05:36;5.80;;;1.42;;
65667;SDS011;52369;52.542;13.232;2024-02-04T11:08:04;5.60;;;1.80;;
65667;SDS011;52369;52.542;13.232;2024-02-04T11:10:31;5.20;;;1.45;;
65667;SDS011;52369;52.542;13.232;2024-02-04T11:12:57;4.32;;;1.33;;
65667;SDS011;52369;52.542;13.232;2024-02-04T11:15:26;5.00;;;1.42;;
65667;SDS011;52369;52.542;13.232;2024-02-04T11:18:05;4.50;;;1.42;;
65667;SDS011;52369;52.542;13.232;2024-02-04T11:23:17;4.25;;;1.42;;
65667;SDS011;52369;52.542;13.232;2024-02-04T11:25:48;8.30;;;1.60;;
65667;SDS011;52369;52.542;13.232;2024-02-04T11:28:15;5.50;;;1.38;;
65667;SDS011;52369;52.542;13.232;2024-02-04T11:30:45;5.03;;;1.35;;
65667;SDS011;52369;52.542;13.232;2024-02-04T11:33:11;4.68;;;1.52;;
65667;SDS011;52369;52.542;13.232;2024-02-04T11:35:38;4.82;;;1.50;;
65667;SDS011;52369;52.542;13.232;2024-02-04T11:38:04;8.05;;;2.05;;
65667;SDS011;52369;52.542;13.232;2024-02-04T11:40:31;5.57;;;1.38;;
65667;SDS011;52369;52.542;13.232;2024-02-04T11:45:53;5.88;;;1.80;;
65667;SDS011;52369;52.542;13.232;2024-02-04T11:48:19;6.30;;;1.30;;
65667;SDS011;52369;52.542;13.232;2024-02-04T11:50:55;5.25;;;1.33;;
65667;SDS011;52369;52.542;13.232;2024-02-04T11:53:21;4.95;;;1.50;;
65667;SDS011;52369;52.542;13.232;2024-02-04T11:55:48;5.15;;;1.52;;
65667;SDS011;52369;52.542;13.232;2024-02-04T11:58:14;4.28;;;1.38;;
65667;SDS011;52369;52.542;13.232;2024-02-04T12:00:43;5.78;;;1.45;;
65667;SDS011;52369;52.542;13.232;2024-02-04T12:03:09;3.83;;;1.80;;
65667;SDS011;52369;52.542;13.232;2024-02-04T12:05:35;5.53;;;1.38;;
65667;SDS011;52369;52.542;13.232;2024-02-04T12:08:02;3.78;;;1.50;;
65667;SDS011;52369;52.542;13.232;2024-02-04T12:10:32;5.90;;;1.95;;
65667;SDS011;52369;52.542;13.232;2024-02-04T12:12:59;4.13;;;1.50;;
65667;SDS011;52369;52.542;13.232;2024-02-04T12:15:27;9.23;;;1.73;;
65667;SDS011;52369;52.542;13.232;2024-02-04T12:17:54;4.50;;;1.27;;
65667;SDS011;52369;52.542;13.232;2024-02-04T12:20:20;4.10;;;1.25;;
65667;SDS011;52369;52.542;13.232;2024-02-04T12:22:46;3.20;;;1.33;;
65667;SDS011;52369;52.542;13.232;2024-02-04T12:25:14;4.65;;;1.90;;
65667;SDS011;52369;52.542;13.232;2024-02-04T12:27:40;5.97;;;1.80;;
65667;SDS011;52369;52.542;13.232;2024-02-04T12:30:07;7.25;;;2.10;;
65667;SDS011;52369;52.542;13.232;2024-02-04T12:32:34;8.75;;;1.65;;
65667;SDS011;52369;52.542;13.232;2024-02-04T12:35:01;6.95;;;1.60;;
65667;SDS011;52369;52.542;13.232;2024-02-04T12:37:27;3.92;;;1.40;;
65667;SDS011;52369;52.542;13.232;2024-02-04T12:39:55;3.95;;;1.52;;
65667;SDS011;52369;52.542;13.232;2024-02-04T12:42:21;5.15;;;1.50;;
65667;SDS011;52369;52.542;13.232;2024-02-04T12:44:48;2.85;;;1.23;;
65667;SDS011;52369;52.542;13.232;2024-02-04T12:47:18;6.63;;;1.73;;
65667;SDS011;52369;52.542;13.232;2024-02-04T12:49:44;4.28;;;1.05;;
65667;SDS011;52369;52.542;13.232;2024-02-04T12:52:10;3.85;;;1.20;;
65667;SDS011;52369;52.542;13.232;2024-02-04T12:54:43;4.05;;;1.52;;
65667;SDS011;52369;52.542;13.232;2024-02-04T12:57:09;4.00;;;1.45;;
65667;SDS011;52369;52.542;13.232;2024-02-04T12:59:38;8.15;;;1.20;;
65667;SDS011;52369;52.542;13.232;2024-02-04T13:02:06;5.43;;;1.50;;
65667;SDS011;52369;52.542;13.232;2024-02-04T13:04:36;4.65;;;1.23;;
65667;SDS011;52369;52.542;13.232;2024-02-04T13:07:06;4.10;;;1.55;;
65667;SDS011;52369;52.542;13.232;2024-02-04T13:09:34;5.55;;;1.38;;
65667;SDS011;52369;52.542;13.232;2024-02-04T13:12:04;7.68;;;1.70;;
65667;SDS011;52369;52.542;13.232;2024-02-04T13:14:31;5.00;;;1.70;;
65667;SDS011;52369;52.542;13.232;2024-02-04T13:16:57;5.57;;;1.83;;
65667;SDS011;52369;52.542;13.232;2024-02-04T13:19:23;5.55;;;1.17;;
65667;SDS011;52369;52.542;13.232;2024-02-04T13:21:49;2.45;;;0.98;;
65667;SDS011;52369;52.542;13.232;2024-02-04T13:24:15;8.30;;;1.52;;
65667;SDS011;52369;52.542;13.232;2024-02-04T13:26:41;4.30;;;1.75;;
65667;SDS011;52369;52.542;13.232;2024-02-04T13:29:07;9.15;;;1.55;;
65667;SDS011;52369;52.542;13.232;2024-02-04T13:31:33;7.88;;;1.33;;
65667;SDS011;52369;52.542;13.232;2024-02-04T13:33:59;8.02;;;1.80;;
65667;SDS011;52369;52.542;13.232;2024-02-04T13:36:29;7.40;;;1.95;;
65667;SDS011;52369;52.542;13.232;2024-02-04T13:38:55;5.07;;;1.52;;
65667;SDS011;52369;52.542;13.232;2024-02-04T13:41:21;7.05;;;1.67;;
65667;SDS011;52369;52.542;13.232;2024-02-04T13:43:47;5.18;;;1.50;;
65667;SDS011;52369;52.542;13.232;2024-02-04T13:46:13;6.10;;;1.30;;
65667;SDS011;52369;52.542;13.232;2024-02-04T13:48:39;7.00;;;1.60;;
65667;SDS011;52369;52.542;13.232;2024-02-04T13:51:05;6.20;;;1.90;;
65667;SDS011;52369;52.542;13.232;2024-02-04T13:53:31;6.72;;;1.75;;
65667;SDS011;52369;52.542;13.232;2024-02-04T13:55:59;5.30;;;1.40;;
65667;SDS011;52369;52.542;13.232;2024-02-04T13:58:25;5.70;;;1.67;;
65667;SDS011;52369;52.542;13.232;2024-02-04T14:00:51;3.80;;;1.48;;
65667;SDS011;52369;52.542;13.232;2024-02-04T14:03:17;5.78;;;1.60;;
65667;SDS011;52369;52.542;13.232;2024-02-04T14:05:44;9.75;;;2.00;;
65667;SDS011;52369;52.542;13.232;2024-02-04T14:08:10;5.93;;;1.95;;
65667;SDS011;52369;52.542;13.232;2024-02-04T14:10:36;6.25;;;1.58;;
65667;SDS011;52369;52.542;13.232;2024-02-04T14:13:03;5.05;;;1.50;;
65667;SDS011;52369;52.542;13.232;2024-02-04T14:15:30;3.45;;;1.30;;
65667;SDS011;52369;52.542;13.232;2024-02-04T14:17:56;7.32;;;1.92;;
65667;SDS011;52369;52.542;13.232;2024-02-04T14:20:22;6.80;;;1.55;;
65667;SDS011;52369;52.542;13.232;2024-02-04T14:22:49;4.82;;;1.30;;
65667;SDS011;52369;52.542;13.232;2024-02-04T14:25:16;8.70;;;2.15;;
65667;SDS011;52369;52.542;13.232;2024-02-04T14:27:42;5.97;;;1.60;;
65667;SDS011;52369;52.542;13.232;2024-02-04T14:30:08;5.82;;;1.75;;
65667;SDS011;52369;52.542;13.232;2024-02-04T14:32:34;7.55;;;1.85;;
65667;SDS011;52369;52.542;13.232;2024-02-04T14:35:00;4.55;;;1.60;;
65667;SDS011;52369;52.542;13.232;2024-02-04T14:37:29;6.40;;;1.45;;